Terminal Aerodrome Forecast
Issued by NWS

Home | Current Version | Previous Version | Text Only | Print | Product List | Glossary Off
Versions: 1 2 3 4 5 6 7 8 9 10 11 12 13 14 15 16 17 18 19 20 21 22 23 24 25 26 27 28 29 30 31 32 33

000
FTUS43 KABR 241100
TAFMBG
TAF
KMBG 241124Z 2412/2512 34011KT P6SM OVC070
     FM242300 03006KT 3SM -SN OVC035
     FM250100 09008KT 1SM -SN OVC015
     FM250300 10009KT 1/2SM SN OVC009=

USA.gov is the U.S. government's official web portal to all federal, state and local government web resources and services.